createdAt,value
2023-01-09T11:13:26.266Z,95.05
2023-01-09T11:16:07.237Z,99.80
2023-01-09T11:18:51.460Z,101.18
2023-01-09T11:21:34.287Z,100.57
2023-01-09T11:24:30.011Z,103.70
2023-01-09T11:27:14.431Z,106.68
2023-01-09T11:29:44.542Z,103.88
2023-01-09T11:32:25.168Z,107.55
2023-01-09T11:34:54.565Z,108.25
2023-01-09T11:37:31.782Z,104.68
2023-01-09T11:40:02.710Z,104.97
2023-01-09T11:42:50.162Z,109.47
2023-01-09T11:45:28.405Z,105.80
2023-01-09T11:47:57.670Z,101.45
2023-01-09T11:50:30.126Z,105.70
2023-01-09T11:53:19.894Z,111.35
2023-01-09T11:56:04.849Z,106.43
2023-01-09T11:58:36.033Z,112.50
2023-01-09T12:01:16.669Z,111.00
2023-01-09T12:04:07.132Z,113.10
2023-01-09T12:07:00.500Z,115.00
2023-01-09T12:12:18.479Z,105.63
2023-01-09T12:15:03.591Z,113.47
2023-01-09T12:17:57.669Z,111.85
2023-01-09T12:20:29.559Z,107.10
2023-01-09T12:23:13.621Z,110.40
2023-01-09T12:26:08.313Z,110.38
2023-01-09T12:29:02.936Z,110.80
2023-01-09T12:31:56.849Z,111.75
2023-01-09T12:34:34.594Z,114.68
2023-01-09T12:37:35.869Z,117.75
2023-01-09T12:40:15.556Z,117.80
2023-01-09T12:43:03.790Z,119.28
2023-01-09T12:45:48.752Z,119.88
2023-01-09T12:48:24.105Z,118.75
2023-01-09T12:51:17.324Z,119.15
2023-01-09T12:54:01.187Z,115.60
2023-01-09T12:56:46.901Z,118.63
2023-01-09T12:59:16.269Z,117.38
2023-01-09T13:01:49.757Z,116.65
2023-01-09T13:04:44.097Z,116.85
2023-01-09T13:07:23.563Z,114.35
2023-01-09T13:10:03.604Z,115.82
2023-01-09T13:12:39.710Z,119.55
2023-01-09T13:15:36.635Z,118.82
2023-01-09T13:18:29.067Z,120.25
2023-01-09T13:20:58.856Z,117.07
2023-01-09T13:23:35.267Z,115.97
2023-01-09T13:26:10.230Z,118.70
2023-01-09T13:28:48.243Z,117.20
2023-01-09T13:31:39.658Z,119.97
2023-01-09T13:34:22.460Z,114.80
2023-01-09T13:36:55.155Z,119.85
2023-01-09T13:39:28.185Z,118.30
2023-01-09T13:42:38.894Z,121.30
2023-01-09T13:45:19.385Z,116.28
2023-01-09T13:48:09.141Z,129.38
2023-01-09T13:50:40.171Z,126.20
2023-01-09T13:53:21.338Z,127.60
2023-01-09T13:56:00.039Z,127.60
2023-01-09T13:58:52.366Z,130.65
2023-01-09T14:01:38.251Z,124.90
2023-01-09T14:04:19.815Z,129.32
2023-01-09T14:07:26.784Z,128.15
2023-01-09T14:10:03.338Z,124.50
2023-01-09T14:12:41.628Z,127.32
2023-01-09T14:15:29.015Z,128.65
2023-01-09T14:18:20.427Z,129.85
2023-01-09T14:20:59.655Z,132.93
2023-01-09T14:23:50.491Z,129.65
2023-01-09T14:26:25.373Z,134.88
2023-01-09T14:29:32.602Z,131.02
2023-01-09T14:32:23.290Z,135.60
2023-01-09T14:35:00.959Z,134.48
2023-01-09T14:37:31.674Z,136.45
2023-01-09T14:40:01.539Z,134.18
2023-01-09T14:42:34.003Z,140.38
2023-01-09T14:47:45.798Z,135.00
2023-01-09T14:50:52.034Z,139.30
2023-01-09T14:53:42.850Z,140.38
2023-01-09T14:56:30.513Z,136.55
2023-01-09T14:59:08.892Z,154.30
2023-01-09T15:01:38.450Z,146.73
2023-01-09T15:04:41.276Z,140.15
2023-01-09T15:07:23.155Z,142.95
2023-01-09T15:09:52.745Z,133.32
2023-01-09T15:12:25.009Z,147.15
2023-01-09T15:15:00.622Z,157.30
2023-01-09T15:17:33.483Z,155.00
2023-01-09T15:20:06.863Z,149.82
2023-01-09T15:22:38.749Z,150.55
2023-01-09T15:25:40.805Z,149.77
2023-01-09T15:28:32.901Z,145.93
2023-01-09T15:31:16.450Z,147.70
2023-01-09T15:33:48.475Z,145.52
2023-01-09T15:36:31.985Z,144.82
2023-01-09T15:39:01.548Z,147.50
2023-01-09T15:41:50.364Z,147.25
2023-01-09T15:44:31.456Z,145.40
2023-01-09T15:47:02.281Z,141.88
2023-01-09T15:49:33.315Z,146.82
2023-01-09T15:52:03.724Z,150.00
2023-01-09T15:54:36.276Z,155.50
2023-01-09T15:57:26.509Z,152.68
2023-01-09T15:59:56.708Z,155.95
2023-01-09T16:02:45.625Z,158.60
2023-01-09T16:05:17.754Z,156.68
2023-01-09T16:07:52.179Z,160.00
2023-01-09T16:10:37.462Z,165.00
2023-01-09T16:13:07.356Z,165.73
2023-01-09T16:15:36.882Z,162.45
2023-01-09T16:18:18.579Z,161.70
2023-01-09T16:20:48.335Z,159.13
2023-01-09T16:23:30.890Z,171.65
2023-01-09T16:26:21.107Z,157.48
2023-01-09T16:28:50.562Z,160.25
2023-01-09T16:31:31.592Z,161.80
2023-01-09T16:34:14.512Z,156.05
2023-01-09T16:36:43.739Z,164.82
2023-01-09T16:39:16.274Z,161.35
2023-01-09T16:42:05.299Z,172.93
2023-01-09T16:44:34.644Z,171.27
2023-01-09T16:47:03.899Z,169.52
2023-01-09T16:49:34.252Z,164.43
2023-01-09T16:52:04.176Z,162.27
2023-01-09T16:54:32.954Z,166.48
2023-01-09T16:57:03.776Z,171.02
2023-01-09T16:59:33.352Z,172.82
2023-01-09T17:02:02.646Z,171.20
2023-01-09T17:04:31.692Z,171.90
2023-01-09T17:07:00.781Z,171.32
2023-01-09T17:09:29.897Z,177.35
2023-01-09T17:11:58.633Z,173.63
2023-01-09T17:14:29.941Z,177.52
2023-01-09T17:16:59.800Z,186.68
2023-01-09T17:19:29.309Z,193.65
2023-01-09T17:21:58.251Z,181.90
2023-01-09T17:24:45.553Z,186.35
2023-01-09T17:27:32.586Z,184.35
2023-01-09T17:30:05.663Z,178.85
2023-01-09T17:32:42.815Z,174.90
2023-01-09T17:35:14.344Z,185.27
2023-01-09T17:37:44.178Z,180.83
2023-01-09T17:40:24.452Z,177.85
2023-01-09T17:42:54.058Z,176.52
2023-01-09T17:45:22.914Z,175.63
2023-01-09T17:47:51.941Z,176.93
2023-01-09T17:50:22.905Z,185.77
2023-01-09T17:52:52.052Z,186.45
2023-01-09T17:55:21.317Z,184.48
2023-01-09T17:57:50.571Z,186.60
2023-01-09T18:00:27.414Z,205.73
2023-01-09T18:02:58.420Z,197.68
2023-01-09T18:05:28.882Z,200.95
2023-01-09T18:07:58.073Z,227.77
2023-01-09T18:10:30.861Z,256.95
2023-01-09T18:13:00.030Z,266.98
2023-01-09T18:15:28.980Z,270.40
2023-01-09T18:17:58.288Z,249.50
2023-01-09T18:20:27.416Z,237.50
2023-01-09T18:22:56.771Z,217.07
2023-01-09T18:25:25.629Z,201.25
2023-01-09T18:27:54.470Z,186.35
2023-01-09T18:30:23.403Z,174.23
2023-01-09T18:32:52.391Z,166.73
2023-01-09T18:35:21.851Z,164.80
2023-01-09T18:37:50.919Z,175.05
2023-01-09T18:40:20.494Z,175.05
2023-01-09T18:42:49.409Z,171.27
2023-01-09T18:45:18.504Z,168.45
2023-01-09T18:47:47.473Z,170.88
2023-01-09T18:50:16.248Z,169.25
2023-01-09T18:52:45.619Z,177.80
2023-01-09T18:55:14.690Z,179.13
2023-01-09T18:57:43.557Z,172.43
2023-01-09T19:00:13.805Z,178.57
2023-01-09T19:02:42.985Z,183.82
2023-01-09T19:05:12.188Z,189.57
2023-01-09T19:07:41.321Z,191.25
2023-01-09T19:10:12.304Z,204.27
2023-01-09T19:12:42.031Z,199.00
2023-01-09T19:15:12.479Z,191.20
2023-01-09T19:17:42.343Z,192.05
2023-01-09T19:20:12.288Z,190.95
2023-01-09T19:22:41.420Z,189.30
2023-01-09T19:25:13.079Z,200.00
2023-01-09T19:27:42.219Z,187.40
2023-01-09T19:30:13.377Z,187.45
2023-01-09T19:32:42.808Z,193.98
2023-01-09T19:35:11.721Z,187.65
2023-01-09T19:37:40.973Z,183.98
2023-01-09T19:40:11.442Z,181.18
2023-01-09T19:42:40.427Z,183.27
2023-01-09T19:45:09.841Z,186.85
2023-01-09T19:47:39.042Z,186.43
2023-01-09T19:50:09.346Z,187.65
2023-01-09T19:52:38.430Z,184.27
2023-01-09T19:55:08.160Z,184.38
2023-01-09T19:57:37.321Z,185.75
2023-01-09T20:00:06.732Z,180.38
2023-01-09T20:02:41.768Z,185.68
2023-01-09T20:05:11.780Z,181.68
2023-01-09T20:07:40.553Z,187.30
2023-01-09T20:10:10.630Z,198.05
2023-01-09T20:12:39.858Z,194.63
2023-01-09T20:15:13.854Z,191.25
2023-01-09T20:17:43.672Z,193.07
2023-01-09T20:20:12.831Z,183.85
2023-01-09T20:22:42.146Z,194.30
2023-01-09T20:25:11.361Z,187.15
2023-01-09T20:27:40.253Z,182.15
2023-01-09T20:30:10.495Z,183.45
2023-01-09T20:32:39.727Z,179.00
2023-01-09T20:35:09.172Z,182.93
2023-01-09T20:37:39.385Z,186.00
2023-01-09T20:40:08.652Z,188.90
2023-01-09T20:42:37.782Z,210.88
2023-01-09T20:45:07.577Z,180.50
2023-01-09T20:47:36.769Z,183.18
2023-01-09T20:50:05.926Z,180.77
2023-01-09T20:52:35.126Z,175.70
2023-01-09T20:55:05.463Z,177.35
2023-01-09T20:57:35.057Z,176.15
2023-01-09T21:00:05.574Z,179.02
2023-01-09T21:02:35.775Z,178.73
2023-01-09T21:05:05.757Z,175.70
2023-01-09T21:07:35.066Z,175.50
2023-01-09T21:10:03.960Z,175.52
2023-01-09T21:12:37.316Z,182.80
2023-01-09T21:15:10.737Z,166.32
2023-01-09T21:17:41.897Z,166.55
2023-01-09T21:20:15.110Z,170.23
2023-01-09T21:22:44.500Z,163.10
2023-01-09T21:25:13.689Z,169.20
2023-01-09T21:27:45.211Z,172.60
2023-01-09T21:30:14.411Z,168.98
2023-01-09T21:32:43.779Z,173.02
2023-01-09T21:35:13.125Z,167.50
2023-01-09T21:37:42.090Z,167.57
2023-01-09T21:40:17.935Z,170.93
2023-01-09T21:43:05.245Z,170.18
2023-01-09T21:45:52.981Z,170.77
2023-01-09T21:48:24.507Z,175.40
2023-01-09T21:50:53.730Z,177.32
2023-01-09T21:53:22.698Z,180.98
2023-01-09T21:55:53.966Z,172.52
2023-01-09T21:58:24.467Z,176.43
2023-01-09T22:00:58.581Z,177.65
2023-01-09T22:03:28.309Z,185.20
2023-01-09T22:05:57.182Z,177.70
2023-01-09T22:08:26.454Z,182.55
2023-01-09T22:10:56.978Z,194.40
2023-01-09T22:13:30.703Z,191.52
2023-01-09T22:16:05.566Z,179.95
2023-01-09T22:18:35.463Z,178.57
2023-01-09T22:21:05.292Z,186.25
2023-01-09T22:23:34.291Z,182.75
2023-01-09T22:26:15.694Z,178.93
2023-01-09T22:28:46.181Z,198.13
2023-01-09T22:31:21.311Z,192.32
2023-01-09T22:33:53.215Z,195.27
2023-01-09T22:36:23.004Z,240.57
2023-01-09T22:38:58.534Z,209.57
2023-01-09T22:41:30.798Z,196.25
2023-01-09T22:44:00.710Z,183.23
2023-01-09T22:46:29.620Z,171.20
2023-01-09T22:48:59.038Z,170.50
2023-01-09T22:51:28.193Z,168.80
2023-01-09T22:53:57.679Z,163.55
2023-01-09T22:56:26.702Z,158.18
2023-01-09T22:58:59.358Z,201.38
2023-01-09T23:01:28.943Z,165.65
2023-01-09T23:03:58.011Z,165.70
2023-01-09T23:06:29.658Z,155.85
2023-01-09T23:08:58.929Z,154.13
2023-01-09T23:11:49.503Z,159.25
2023-01-09T23:14:19.488Z,155.70
2023-01-09T23:16:48.627Z,156.23
2023-01-09T23:19:17.869Z,159.63
2023-01-09T23:21:47.812Z,175.15
2023-01-09T23:24:18.871Z,147.23
2023-01-09T23:26:49.191Z,151.38
2023-01-09T23:29:18.329Z,152.25
2023-01-09T23:31:47.354Z,150.00
2023-01-09T23:34:24.644Z,146.52
2023-01-09T23:36:55.239Z,141.68
2023-01-09T23:39:24.948Z,141.05
2023-01-09T23:42:12.056Z,140.73
2023-01-09T23:44:41.628Z,137.77
2023-01-09T23:47:10.673Z,141.75
2023-01-09T23:49:40.081Z,140.20
2023-01-09T23:52:09.859Z,143.10
2023-01-09T23:54:39.155Z,142.25
2023-01-09T23:57:08.191Z,150.85
2023-01-09T23:59:37.660Z,145.45
